Terminal Aerodrome Forecast
Issued by NWS Amarillo, TX

Home | Current Version | Previous Version | Text Only | Print | Product List | Glossary On
Versions: 1 2 3 4 5 6 7 8 9 10 11 12 13 14 15
000
FTUS44 KAMA 261700
TAFAMA
TAF
KAMA 261733Z 2618/2718 02013KT P6SM OVC010
      TEMPO 2619/2623 3SM -SN BR
     FM270000 35009KT P6SM OVC015=

USA.gov is the U.S. government's official web portal to all federal, state and local government web resources and services.